Central Il Rgnl Arpt at Bloomington-Normal Airport
KBMI : now visible

Airfield :











YOU CAN JOIN US ON...

 
LOGIN :

Register | Disclaimer

   EN    FR    IT 

 









Legend :    VFR   Marginal VFR   IFR   Intensive IFR   Very Intensive IFR
Visi :
Ceiling :
>= 8 km
>= 3000ft
5 to 8 km
1000 to 3000 ft
1500m to 5 km
500 to 1000 ft
800 to 1500m
200 to 500 ft
< 800m
< 200 ft
Symbols :   Thunderstorms  Fog  Heavy snow  Heavy precipitations  Wind > 20 kt






- Airport Elevation : 871 ft
- IATA code : BMI


KBMI - Central Il Rgnl Arpt at Bloomington-Normal

CURRENT METAR :
  • 181956Z 14015KT 10SM -RA OVC012 18/17 A3015 RMK AO2 RAE29B53 SLP207 P0000 T01830172

EXPIRED METARs :
  • 181856Z 16017KT 10SM -RA OVC012 18/17 A3015 RMK AO2 SLP206 P0002 T01830172
  • 181756Z 14017KT 10SM -RA BKN017 OVC026 18/16 A3016 RMK AO2 PK WND 14028/1741 RAB10 SLP211 P0001 60013 T01780161 10189 20156 56002

TAF KBMI
Valid from the 18 at 18:00 until the 19 at 18:00 UTC


181732Z 1818/1918 14014G22KT 6SM -SHRA BR OVC015
FM190200 14013KT P6SM VCSH OVC025
FM190700 16012KT 6SM BR VCSH BKN015
FM191200 17011KT 6SM BR BKN017
KZAU FIR / North America



MET'MAP, your aeronautical weather chart ! - Copyright ORBIFLY December 2007 - Disclaimer

ORBIFLY MET'MAP TEAM :

Programming & Development : Alexandra Zaïnal
Concept & original design : Baudouin d'Aumeries
Assistance for programming : Marc-Olivier Méhu
Technical & hardware support : Manuel Goepfert

Contact : metmap@orbifly.com




SOURCES & CREDITS :

   NOAA       Earth
Advisory